Relevés horaires Eggishorn (Suisse)


Relevés horaires à Eggishorn - Jeudi 23 Avr. 2026
Heure UTC1 Température [°C] Vent [km/h] Hum. [%] Pres.4 [hPa] Visi. [Km] Nébu. [octa] Préc.5 [mm] Cond.
2m. Res. Ros. Dir.2 Vit. Moy. Raf.3
23:00 -0.6 -4.3 -14.6 ONO 11.1 -- 13.0 34 700(-0.3/3h) -- -- -- --
22:00 -0.1 -2 -14.6 NO 5.6 -- 13.0 32 700 -- -- -- --
21:00 -0.4 -3.6 -12.6 NNO 9.3 -- 14.8 39 700(0.2/3h) -- -- -- --
20:00 -0.4 -3.6 -12.3 O 9.3 -- 14.8 40 700(0.1/3h) -- -- -- --
19:00 0.2 -2.9 -11.6 ONO 9.3 -- 13.0 41 700(-0.2/3h) -- -- -- --
18:00 1.3 -1 -11.0 O 7.4 -- 24.1 39 700(-0.3/3h) -- -- -- --
17:00 2.4 0.3 -11.3 OSO 7.4 -- 11.1 35 700(-0.4/3h) -- -- -- --
16:00 3.4 0.9 -11.2 O 9.3 -- 14.8 33 700(-0.4/3h) -- -- -- --
15:00 2.3 -0.4 -13.6 S 9.3 -- 24.1 30 700(-0.3/3h) -- -- -- --
14:00 3.1 3.1 -11.5 ESE 3.7 -- 24.1 33 700(0.0/3h) -- -- -- --
13:00 2.6 1.1 -11.2 ESE 5.6 -- 20.4 35 700(0.2/3h) -- -- -- --
12:00 1.7 -1.1 -12.8 ESE 9.3 -- 24.1 33 700(0.5/3h) -- -- -- --
11:00 1.0 -2.8 -10.7 ESE 13.0 -- 22.2 41 700(0.8/3h) -- -- -- --
10:00 0.3 -4 -11.7 ESE 14.8 -- 24.1 40 700(1.2/3h) -- -- -- --
09:00 -0.2 -3.8 -12.6 E 11.1 -- 22.2 39 700(1.1/3h) -- -- -- --
08:00 -1.3 -4.1 -16.5 E 7.4 -- 20.4 30 700(1.1/3h) -- -- -- --
07:00 -1.3 -5.2 -25.4 E 11.1 -- 22.2 14 700(1.0/3h) -- -- -- --
06:00 -2.5 -7.5 -24.6 ENE 14.8 -- 25.9 16 700(0.7/3h) -- -- -- --
05:00 -3.1 -8.2 -28.2 ENE 14.8 -- 24.1 12 700(0.3/3h) -- -- -- --
04:00 -3.5 -7.8 -35.2 ENE 11.1 -- 20.4 6 700(0.1/3h) -- -- -- --
03:00 -3.8 -8.2 -31.7 NE 11.1 -- 18.5 9 700(0.3/3h) -- -- -- --
02:00 -3.5 -7.3 -28.0 NNE 9.3 -- 18.5 13 700(0.4/3h) -- -- -- --
01:00 -4.1 -9 -19.0 ENE 13.0 -- 16.7 30 700(0.4/3h) -- -- -- --
00:00 -4.3 -6.8 -13.3 ONO 5.6 -- 14.8 49 700(0.7/3h) -- -- -- --

1 Coordinated Universal Time. Actuellement il est 17:00 locale et 15:00 UTC.

2 Le vent souffle depuis la direction indiquée vers la direction oposée.

3 Les rafales max. sont disponible 40 min après l'heure du relevé.

4 Pour les stations d'altitude (plus de 600m) le géopotentiel du niveau le plus proche de la pression obligatoire est indiqué.

5 Les stations disposant d'un diffuseur peuvent indiquer "trace". Cela signifie que des précipitations ont touchés le sol mais que la quantité est inférieure à 0.1 mm.

Copyright

Les données affichées sur cette page sont la propriété exclusive de Météo Suisse.

Récapitulatif de la journée
Température [°C] Vent [km/h] Ensoleillement4 [h] Precipitations totale5 [mm] Pression [Hpa]
Min1 Max.2 Moy.3 Max. Min Max.
-4.4 3.6 0 25.9 13 h 12 min 0 700.0 700.0

1 Température minimale relevée entre 18:00 UTC la veille et 18:00 UTC le jour donné.

2 Température maximale relevée entre 06:00 UTC le jour donné et 06:00 UTC le lendemain.

3 Vent moyen de la journée basé sur les relevés horaires.

4 Ensoleillement en heures relevé entre 06:00 UTC la veille et 06:00 UTC le jour donné.

5 Précipitations totales tombées entre 06:00 UTC la jour donné et 06:00 UTC le lendemain.

Graphiques horaires